Time,TemperatureF,DewpointF,PressureIn,WindDirection,WindDirectionDegrees,WindSpeedMPH,WindSpeedGustMPH,Humidity,HourlyPrecipIn,Conditions,Clouds,dailyrainin,SoftwareType,DateUTC
2013-02-13 00:02:00,27.9,6.1,30.18,ESE,115,0.0,0.0,39,0.00,RA,,0.00,WeatherDisplay:10.37,2013-02-13 08:02:00,
2013-02-13 00:12:00,27.1,5.4,30.18,NW,323,2.0,4.0,39,0.00,RA,,0.00,WeatherDisplay:10.37,2013-02-13 08:12:00,
2013-02-13 00:22:00,26.6,6.0,30.18,NW,317,0.0,2.0,41,0.00,,,0.00,WeatherDisplay:10.37,2013-02-13 08:22:00,
2013-02-13 00:27:00,26.4,6.4,30.18,NW,317,2.0,3.0,42,0.00,,,0.00,WeatherDisplay:10.37,2013-02-13 08:27:00,
2013-02-13 00:32:00,26.6,6.6,30.18,NW,318,0.0,3.0,42,0.00,,,0.00,WeatherDisplay:10.37,2013-02-13 08:32:00,
2013-02-13 00:37:00,26.4,6.4,30.18,NW,319,0.0,0.0,42,0.00,,,0.00,WeatherDisplay:10.37,2013-02-13 08:37:00,
2013-02-13 00:42:00,26.6,6.6,30.18,NW,319,0.0,0.0,42,0.00,,,0.00,WeatherDisplay:10.37,2013-02-13 08:42:00,
2013-02-13 00:47:00,26.6,6.6,30.18,NW,319,0.0,0.0,42,0.00,,,0.00,WeatherDisplay:10.37,2013-02-13 08:47:00,
2013-02-13 00:52:00,26.8,6.2,30.18,NW,319,0.0,0.0,41,0.00,,,0.00,WeatherDisplay:10.37,2013-02-13 08:52:00,
2013-02-13 00:57:00,26.8,6.2,30.18,NW,319,0.0,0.0,41,0.00,,,0.00,WeatherDisplay:10.37,2013-02-13 08:57:00,
2013-02-13 01:02:00,27.0,6.4,30.18,NNW,330,0.0,3.0,41,0.00,,,0.00,WeatherDisplay:10.37,2013-02-13 09:02:00,
2013-02-13 01:07:00,27.9,7.2,30.18,North,9,0.0,0.0,41,0.00,,,0.00,WeatherDisplay:10.37,2013-02-13 09:07:00,
2013-02-13 01:12:00,28.4,7.7,30.18,NE,35,0.0,4.0,41,0.00,,,0.00,WeatherDisplay:10.37,2013-02-13 09:12:00,
2013-02-13 01:22:00,28.2,7.5,30.18,NE,52,0.0,0.0,41,0.00,,,0.00,WeatherDisplay:10.37,2013-02-13 09:22:00,
2013-02-13 01:27:00,28.3,7.6,30.18,NNE,24,0.0,0.0,41,0.00,,,0.00,WeatherDisplay:10.37,2013-02-13 09:27:00,
2013-02-13 01:32:00,28.4,7.7,30.18,North,8,0.0,0.0,41,0.00,,,0.00,WeatherDisplay:10.37,2013-02-13 09:32:00,
2013-02-13 01:37:00,28.2,7.5,30.18,SW,224,0.0,0.0,41,0.00,,,0.00,WeatherDisplay:10.37,2013-02-13 09:37:00,
2013-02-13 01:42:00,27.9,7.2,30.15,SW,215,0.0,0.0,41,0.00,,,0.00,WeatherDisplay:10.37,2013-02-13 09:42:00,
2013-02-13 01:47:00,27.6,6.9,30.15,WSW,246,0.0,0.0,41,0.00,,,0.00,WeatherDisplay:10.37,2013-02-13 09:47:00,
2013-02-13 01:52:00,27.5,7.4,30.15,SW,231,0.0,0.0,42,0.00,,,0.00,WeatherDisplay:10.37,2013-02-13 09:52:00,
2013-02-13 01:57:00,27.5,6.8,30.18,SSW,193,0.0,0.0,41,0.00,,,0.00,WeatherDisplay:10.37,2013-02-13 09:57:00,
2013-02-13 02:02:00,27.9,7.2,30.18,ESE,119,0.0,3.0,41,0.00,,,0.00,WeatherDisplay:10.37,2013-02-13 10:02:00,
2013-02-13 02:07:00,27.9,7.2,30.18,ENE,61,0.0,3.0,41,0.00,,,0.00,WeatherDisplay:10.37,2013-02-13 10:07:00,
2013-02-13 02:12:00,28.0,7.9,30.15,NNE,30,2.0,4.0,42,0.00,,,0.00,WeatherDisplay:10.37,2013-02-13 10:12:00,
2013-02-13 02:17:00,28.4,8.2,30.15,NNE,18,0.0,0.0,42,0.00,,,0.00,WeatherDisplay:10.37,2013-02-13 10:17:00,
2013-02-13 02:22:00,28.4,8.2,30.15,NE,55,0.0,4.0,42,0.00,,,0.00,WeatherDisplay:10.37,2013-02-13 10:22:00,
2013-02-13 02:27:00,28.6,7.8,30.15,East,84,0.0,4.0,41,0.00,,,0.00,WeatherDisplay:10.37,2013-02-13 10:27:00,
2013-02-13 02:32:00,28.6,7.8,30.15,East,101,0.0,3.0,41,0.00,,,0.00,WeatherDisplay:10.37,2013-02-13 10:32:00,
2013-02-13 02:37:00,28.4,8.2,30.15,ESE,110,2.0,3.0,42,0.00,,,0.00,WeatherDisplay:10.37,2013-02-13 10:37:00,
2013-02-13 02:42:00,28.8,8.0,30.15,East,85,0.0,3.0,41,0.00,,,0.00,WeatherDisplay:10.37,2013-02-13 10:42:00,
2013-02-13 02:47:00,28.6,7.9,30.15,East,87,0.0,0.0,41,0.00,,,0.00,WeatherDisplay:10.37,2013-02-13 10:47:00,
2013-02-13 02:52:00,28.6,7.8,30.15,ESE,107,0.0,3.0,41,0.00,,,0.00,WeatherDisplay:10.37,2013-02-13 10:52:00,
2013-02-13 02:57:00,28.6,7.8,30.15,ENE,76,0.0,3.0,41,0.00,,,0.00,WeatherDisplay:10.37,2013-02-13 10:57:00,
2013-02-13 03:02:00,28.6,7.8,30.15,NE,51,0.0,0.0,41,0.00,,,0.00,WeatherDisplay:10.37,2013-02-13 11:02:00,
2013-02-13 03:07:00,28.6,7.8,30.15,NE,52,0.0,0.0,41,0.00,,,0.00,WeatherDisplay:10.37,2013-02-13 11:07:00,
2013-02-13 03:12:00,28.9,8.1,30.15,ENE,60,2.0,4.0,41,0.00,,,0.00,WeatherDisplay:10.37,2013-02-13 11:12:00,
2013-02-13 03:22:00,28.9,8.1,30.15,NE,49,0.0,0.0,41,0.00,,,0.00,WeatherDisplay:10.37,2013-02-13 11:22:00,
2013-02-13 03:27:00,28.6,8.4,30.15,NNE,32,0.0,0.0,42,0.00,,,0.00,WeatherDisplay:10.37,2013-02-13 11:27:00,
2013-02-13 03:32:00,28.4,8.2,30.15,NNE,33,0.0,0.0,42,0.00,,,0.00,WeatherDisplay:10.37,2013-02-13 11:32:00,
2013-02-13 03:37:00,28.3,8.1,30.15,NNE,33,0.0,0.0,42,0.00,,,0.00,WeatherDisplay:10.37,2013-02-13 11:37:00,
2013-02-13 03:42:00,28.0,7.8,30.15,NNE,33,0.0,0.0,42,0.00,,,0.00,WeatherDisplay:10.37,2013-02-13 11:42:00,
2013-02-13 03:47:00,27.6,7.5,30.15,NNE,30,0.0,0.0,42,0.00,,,0.00,WeatherDisplay:10.37,2013-02-13 11:47:00,
2013-02-13 03:52:00,27.2,7.7,30.15,NNE,21,0.0,0.0,43,0.00,,,0.00,WeatherDisplay:10.37,2013-02-13 11:52:00,
2013-02-13 03:57:00,27.0,7.4,30.15,NNE,16,0.0,0.0,43,0.00,,,0.00,WeatherDisplay:10.37,2013-02-13 11:57:00,
2013-02-13 04:02:00,27.0,7.4,30.15,NNE,16,0.0,0.0,43,0.00,,,0.00,WeatherDisplay:10.37,2013-02-13 12:02:00,
2013-02-13 04:07:00,27.0,7.4,30.15,NNE,16,0.0,0.0,43,0.00,,,0.00,WeatherDisplay:10.37,2013-02-13 12:07:00,
2013-02-13 04:12:00,27.2,7.6,30.15,NNE,15,0.0,0.0,43,0.00,,,0.00,WeatherDisplay:10.37,2013-02-13 12:12:00,
2013-02-13 04:17:00,27.5,7.9,30.15,North,10,0.0,0.0,43,0.00,,,0.00,WeatherDisplay:10.37,2013-02-13 12:17:00,
2013-02-13 04:22:00,27.7,8.1,30.15,North,10,0.0,0.0,43,0.00,,,0.00,WeatherDisplay:10.37,2013-02-13 12:22:00,
2013-02-13 04:27:00,27.9,8.2,30.15,NNE,12,0.0,0.0,43,0.00,,,0.00,WeatherDisplay:10.37,2013-02-13 12:27:00,
2013-02-13 04:32:00,27.9,8.2,30.15,North,8,0.0,0.0,43,0.00,,,0.00,WeatherDisplay:10.37,2013-02-13 12:32:00,
2013-02-13 04:37:00,27.9,8.2,30.15,North,357,0.0,0.0,43,0.00,,,0.00,WeatherDisplay:10.37,2013-02-13 12:37:00,
2013-02-13 04:42:00,28.0,8.4,30.15,North,10,2.0,4.0,43,0.00,,,0.00,WeatherDisplay:10.37,2013-02-13 12:42:00,
2013-02-13 04:52:00,28.2,8.6,30.15,NE,49,0.0,0.0,43,0.00,,,0.00,WeatherDisplay:10.37,2013-02-13 12:52:00,
2013-02-13 04:57:00,28.1,8.4,30.15,NE,54,0.0,0.0,43,0.00,,,0.00,WeatherDisplay:10.37,2013-02-13 12:57:00,
2013-02-13 05:02:00,28.2,8.5,30.15,NE,54,0.0,0.0,43,0.00,,,0.00,WeatherDisplay:10.37,2013-02-13 13:02:00,
2013-02-13 05:07:00,27.9,8.2,30.15,NE,54,0.0,0.0,43,0.00,,,0.00,WeatherDisplay:10.37,2013-02-13 13:07:00,
2013-02-13 05:12:00,27.7,8.1,30.15,NE,51,0.0,4.0,43,0.00,,,0.00,WeatherDisplay:10.37,2013-02-13 13:12:00,
2013-02-13 05:22:00,27.9,8.2,30.15,ENE,67,0.0,0.0,43,0.00,,,0.00,WeatherDisplay:10.37,2013-02-13 13:22:00,
2013-02-13 05:27:00,28.0,8.4,30.15,ENE,65,0.0,0.0,43,0.00,,,0.00,WeatherDisplay:10.37,2013-02-13 13:27:00,
2013-02-13 05:32:00,28.2,8.6,30.15,ENE,58,0.0,0.0,43,0.00,,,0.00,WeatherDisplay:10.37,2013-02-13 13:32:00,
2013-02-13 05:37:00,28.5,8.8,30.15,NNE,30,0.0,4.0,43,0.00,,,0.00,WeatherDisplay:10.37,2013-02-13 13:37:00,
2013-02-13 05:42:00,28.8,9.0,30.15,North,6,0.0,0.0,43,0.00,,,0.00,WeatherDisplay:10.37,2013-02-13 13:42:00,
2013-02-13 05:47:00,28.8,8.5,30.15,NNE,28,0.0,3.0,42,0.00,,,0.00,WeatherDisplay:10.37,2013-02-13 13:47:00,
2013-02-13 05:52:00,28.9,8.7,30.15,ENE,62,0.0,4.0,42,0.00,,,0.00,WeatherDisplay:10.37,2013-02-13 13:52:00,
2013-02-13 05:57:00,29.1,8.8,30.15,East,91,0.0,2.0,42,0.00,,,0.00,WeatherDisplay:10.37,2013-02-13 13:57:00,
2013-02-13 06:02:00,29.3,9.0,30.15,East,86,0.0,4.0,42,0.00,,,0.00,WeatherDisplay:10.37,2013-02-13 14:02:00,
2013-02-13 06:07:00,29.5,9.2,30.15,ENE,57,0.0,3.0,42,0.00,,,0.00,WeatherDisplay:10.37,2013-02-13 14:07:00,
2013-02-13 06:12:00,29.5,9.2,30.15,ENE,57,0.0,4.0,42,0.00,,,0.00,WeatherDisplay:10.37,2013-02-13 14:12:00,
2013-02-13 06:17:00,29.3,9.0,30.15,ENE,60,0.0,0.0,42,0.00,,,0.00,WeatherDisplay:10.37,2013-02-13 14:17:00,
2013-02-13 06:22:00,28.9,8.7,30.15,ENE,60,0.0,0.0,42,0.00,,,0.00,WeatherDisplay:10.37,2013-02-13 14:22:00,
2013-02-13 06:27:00,28.9,8.7,30.15,ENE,63,0.0,0.0,42,0.00,,,0.00,WeatherDisplay:10.37,2013-02-13 14:27:00,
2013-02-13 06:32:00,28.8,8.5,30.15,ENE,71,0.0,0.0,42,0.00,,,0.00,WeatherDisplay:10.37,2013-02-13 14:32:00,
2013-02-13 06:37:00,28.9,8.7,30.15,ENE,74,0.0,0.0,42,0.00,,,0.00,WeatherDisplay:10.37,2013-02-13 14:37:00,
2013-02-13 06:42:00,29.1,8.8,30.18,ENE,74,0.0,0.0,42,0.00,,,0.00,WeatherDisplay:10.37,2013-02-13 14:42:00,
2013-02-13 06:47:00,29.1,8.8,30.18,ENE,66,0.0,3.0,42,0.00,,,0.00,WeatherDisplay:10.37,2013-02-13 14:47:00,
2013-02-13 06:52:00,29.1,8.8,30.18,NE,56,0.0,0.0,42,0.00,,,0.00,WeatherDisplay:10.37,2013-02-13 14:52:00,
2013-02-13 06:57:00,28.9,8.7,30.18,NE,55,0.0,0.0,42,0.00,,,0.00,WeatherDisplay:10.37,2013-02-13 14:57:00,
2013-02-13 07:02:00,29.0,8.8,30.18,NE,44,0.0,0.0,42,0.00,,,0.00,WeatherDisplay:10.37,2013-02-13 15:02:00,
2013-02-13 07:12:00,29.5,9.2,30.18,NNE,16,0.0,0.0,42,0.00,,,0.00,WeatherDisplay:10.37,2013-02-13 15:12:00,
2013-02-13 07:17:00,30.2,9.8,30.18,NE,36,0.0,0.0,42,0.00,,,0.00,WeatherDisplay:10.37,2013-02-13 15:17:00,
2013-02-13 07:22:00,31.1,10.6,30.18,ENE,57,0.0,3.0,42,0.00,,,0.00,WeatherDisplay:10.37,2013-02-13 15:22:00,
2013-02-13 07:27:00,31.8,11.3,30.18,ENE,60,0.0,0.0,42,0.00,,,0.00,WeatherDisplay:10.37,2013-02-13 15:27:00,
2013-02-13 07:32:00,32.4,11.3,30.18,ENE,65,0.0,0.0,41,0.00,,,0.00,WeatherDisplay:10.37,2013-02-13 15:32:00,
2013-02-13 07:37:00,32.9,12.3,30.18,East,88,0.0,0.0,42,0.00,,,0.00,WeatherDisplay:10.37,2013-02-13 15:37:00,
2013-02-13 07:42:00,33.4,12.2,30.18,ESE,108,0.0,0.0,41,0.00,,,0.00,WeatherDisplay:10.37,2013-02-13 15:42:00,
2013-02-13 07:47:00,34.0,12.7,30.18,SE,133,0.0,0.0,41,0.00,,,0.00,WeatherDisplay:10.37,2013-02-13 15:47:00,
2013-02-13 07:52:00,34.5,12.6,30.18,ESE,120,0.0,4.0,40,0.00,,,0.00,WeatherDisplay:10.37,2013-02-13 15:52:00,
2013-02-13 07:57:00,35.2,13.2,30.18,NE,53,0.0,0.0,40,0.00,,,0.00,WeatherDisplay:10.37,2013-02-13 15:57:00,
2013-02-13 08:07:00,36.5,13.3,30.18,ENE,72,2.0,5.0,38,0.00,,,0.00,WeatherDisplay:10.37,2013-02-13 16:07:00,
2013-02-13 08:12:00,37.0,13.7,30.18,ESE,105,0.0,6.0,38,0.00,,,0.00,WeatherDisplay:10.37,2013-02-13 16:12:00,
2013-02-13 08:17:00,37.4,12.8,30.18,ESE,106,2.0,6.0,36,0.00,,,0.00,WeatherDisplay:10.37,2013-02-13 16:17:00,
2013-02-13 08:22:00,37.8,12.5,30.18,ENE,74,3.0,6.0,35,0.00,,,0.00,WeatherDisplay:10.37,2013-02-13 16:22:00,
2013-02-13 08:27:00,38.1,12.8,30.18,ENE,61,2.0,6.0,35,0.00,,,0.00,WeatherDisplay:10.37,2013-02-13 16:27:00,
2013-02-13 08:37:00,38.8,12.8,30.18,NE,43,3.0,6.0,34,0.00,,,0.00,WeatherDisplay:10.37,2013-02-13 16:37:00,
2013-02-13 08:42:00,39.2,12.5,30.18,NE,40,3.0,6.0,33,0.00,,,0.00,WeatherDisplay:10.37,2013-02-13 16:42:00,
2013-02-13 08:47:00,39.6,12.8,30.18,NE,43,0.0,6.0,33,0.00,,,0.00,WeatherDisplay:10.37,2013-02-13 16:47:00,
2013-02-13 08:52:00,39.9,13.1,30.18,ENE,62,2.0,5.0,33,0.00,,,0.00,WeatherDisplay:10.37,2013-02-13 16:52:00,
2013-02-13 08:57:00,40.3,13.4,30.18,ENE,72,0.0,5.0,33,0.00,,,0.00,WeatherDisplay:10.37,2013-02-13 16:57:00,
2013-02-13 09:02:00,40.6,13.7,30.18,ENE,64,5.0,8.0,33,0.00,,,0.00,WeatherDisplay:10.37,2013-02-13 17:02:00,
2013-02-13 09:07:00,40.8,13.2,30.18,NNE,26,0.0,6.0,32,0.00,,,0.00,WeatherDisplay:10.37,2013-02-13 17:07:00,
2013-02-13 09:12:00,41.2,13.5,30.18,NE,35,0.0,6.0,32,0.00,,,0.00,WeatherDisplay:10.37,2013-02-13 17:12:00,
2013-02-13 09:17:00,41.8,14.1,30.18,ESE,111,0.0,6.0,32,0.00,,,0.00,WeatherDisplay:10.37,2013-02-13 17:17:00,
2013-02-13 09:22:00,42.5,14.0,30.18,East,94,5.0,8.0,31,0.00,,,0.00,WeatherDisplay:10.37,2013-02-13 17:22:00,
2013-02-13 09:27:00,42.7,12.6,30.18,ENE,72,2.0,6.0,29,0.00,,,0.00,WeatherDisplay:10.37,2013-02-13 17:27:00,
2013-02-13 09:32:00,43.8,13.6,30.18,ENE,66,2.0,6.0,29,0.00,,,0.00,WeatherDisplay:10.37,2013-02-13 17:32:00,
2013-02-13 09:37:00,44.1,13.8,30.18,ENE,66,3.0,5.0,29,0.00,,,0.00,WeatherDisplay:10.37,2013-02-13 17:37:00,
2013-02-13 09:47:00,45.0,13.8,30.18,ENE,70,2.0,7.0,28,0.00,,,0.00,WeatherDisplay:10.37,2013-02-13 17:47:00,
2013-02-13 09:52:00,45.5,14.2,30.18,NNE,23,5.0,9.0,28,0.00,,,0.00,WeatherDisplay:10.37,2013-02-13 17:52:00,
2013-02-13 10:02:00,46.0,14.6,30.18,NE,46,5.0,7.0,28,0.00,,,0.00,WeatherDisplay:10.37,2013-02-13 18:02:00,
2013-02-13 10:07:00,46.4,14.2,30.18,NE,49,6.0,12.0,27,0.00,,,0.00,WeatherDisplay:10.37,2013-02-13 18:07:00,
2013-02-13 10:12:00,45.9,14.6,30.21,NE,48,3.0,8.0,28,0.00,,,0.00,WeatherDisplay:10.37,2013-02-13 18:12:00,
2013-02-13 10:17:00,45.9,14.5,30.21,NE,37,3.0,7.0,28,0.00,,,0.00,WeatherDisplay:10.37,2013-02-13 18:17:00,
2013-02-13 10:22:00,45.7,14.4,30.21,NE,40,3.0,8.0,28,0.00,,,0.00,WeatherDisplay:10.37,2013-02-13 18:22:00,
2013-02-13 10:32:00,45.1,13.9,30.21,NE,45,6.0,12.0,28,0.00,,,0.00,WeatherDisplay:10.37,2013-02-13 18:32:00,
2013-02-13 10:42:00,45.7,14.4,30.18,NNE,31,2.0,9.0,28,0.00,,,0.00,WeatherDisplay:10.37,2013-02-13 18:42:00,
2013-02-13 10:52:00,46.9,15.5,30.18,NNE,27,2.0,8.0,28,0.00,,,0.00,WeatherDisplay:10.37,2013-02-13 18:52:00,
2013-02-13 10:57:00,46.7,15.2,30.18,NE,39,3.0,8.0,28,0.00,,,0.00,WeatherDisplay:10.37,2013-02-13 18:57:00,
2013-02-13 11:02:00,46.6,16.0,30.18,NNE,25,3.0,8.0,29,0.00,,,0.00,WeatherDisplay:10.37,2013-02-13 19:02:00,
2013-02-13 11:07:00,46.9,16.3,30.18,NNE,12,2.0,8.0,29,0.00,,,0.00,WeatherDisplay:10.37,2013-02-13 19:07:00,
2013-02-13 11:12:00,47.2,16.5,30.18,NNE,19,5.0,8.0,29,0.00,,,0.00,WeatherDisplay:10.37,2013-02-13 19:12:00,
2013-02-13 11:17:00,47.1,15.6,30.18,NNE,25,5.0,8.0,28,0.00,,,0.00,WeatherDisplay:10.37,2013-02-13 19:17:00,
2013-02-13 11:22:00,46.8,16.1,30.18,NNE,31,3.0,8.0,29,0.00,,,0.00,WeatherDisplay:10.37,2013-02-13 19:22:00,
2013-02-13 11:27:00,47.1,16.4,30.18,NE,34,0.0,6.0,29,0.00,,,0.00,WeatherDisplay:10.37,2013-02-13 19:27:00,
2013-02-13 11:32:00,47.3,16.6,30.18,NNE,32,0.0,6.0,29,0.00,,,0.00,WeatherDisplay:10.37,2013-02-13 19:32:00,
2013-02-13 11:37:00,47.7,16.9,30.18,NNE,26,3.0,6.0,29,0.00,,,0.00,WeatherDisplay:10.37,2013-02-13 19:37:00,
2013-02-13 11:42:00,47.8,17.1,30.18,North,5,0.0,6.0,29,0.00,,,0.00,WeatherDisplay:10.37,2013-02-13 19:42:00,
2013-02-13 11:47:00,48.0,17.2,30.18,North,350,2.0,6.0,29,0.00,,,0.00,WeatherDisplay:10.37,2013-02-13 19:47:00,
2013-02-13 11:52:00,48.2,18.2,30.18,NE,52,0.0,6.0,30,0.00,,,0.00,WeatherDisplay:10.37,2013-02-13 19:52:00,
2013-02-13 11:57:00,48.0,17.2,30.18,ENE,64,1.0,4.0,29,0.00,,,0.00,WeatherDisplay:10.37,2013-02-13 19:57:00,
2013-02-13 12:07:00,47.5,16.8,30.18,WNW,296,0.0,5.0,29,0.00,,,0.00,WeatherDisplay:10.37,2013-02-13 20:07:00,
2013-02-13 12:12:00,47.1,16.5,30.18,ENE,62,2.0,4.0,29,0.00,,,0.00,WeatherDisplay:10.37,2013-02-13 20:12:00,
2013-02-13 12:17:00,46.3,15.7,30.18,ENE,64,2.0,4.0,29,0.00,,,0.00,WeatherDisplay:10.37,2013-02-13 20:17:00,
2013-02-13 12:22:00,46.4,15.8,30.18,NE,53,0.0,3.0,29,0.00,,,0.00,WeatherDisplay:10.37,2013-02-13 20:22:00,
2013-02-13 12:27:00,46.4,15.8,30.15,ENE,76,3.0,4.0,29,0.00,,,0.00,WeatherDisplay:10.37,2013-02-13 20:27:00,
2013-02-13 12:32:00,46.2,16.4,30.15,ESE,102,2.0,4.0,30,0.00,,,0.00,WeatherDisplay:10.37,2013-02-13 20:32:00,
2013-02-13 12:42:00,46.0,16.2,30.15,East,93,0.0,3.0,30,0.00,,,0.00,WeatherDisplay:10.37,2013-02-13 20:42:00,
2013-02-13 12:47:00,46.1,16.3,30.15,ESE,107,2.0,4.0,30,0.00,,,0.00,WeatherDisplay:10.37,2013-02-13 20:47:00,
2013-02-13 12:52:00,46.2,16.4,30.15,East,99,2.0,4.0,30,0.00,,,0.00,WeatherDisplay:10.37,2013-02-13 20:52:00,
2013-02-13 12:57:00,46.6,16.8,30.15,SE,134,0.0,4.0,30,0.00,,,0.00,WeatherDisplay:10.37,2013-02-13 20:57:00,
2013-02-13 13:02:00,46.9,17.8,30.15,SSE,160,0.0,3.0,31,0.00,,,0.00,WeatherDisplay:10.37,2013-02-13 21:02:00,
2013-02-13 13:07:00,47.1,18.0,30.15,SSE,168,0.0,0.0,31,0.00,,,0.00,WeatherDisplay:10.37,2013-02-13 21:07:00,
2013-02-13 13:12:00,47.3,17.4,30.15,SSE,168,0.0,4.0,30,0.00,,,0.00,WeatherDisplay:10.37,2013-02-13 21:12:00,
2013-02-13 13:17:00,47.4,17.5,30.15,South,191,2.0,6.0,30,0.00,,,0.00,WeatherDisplay:10.37,2013-02-13 21:17:00,
2013-02-13 13:22:00,47.8,17.9,30.15,SW,221,2.0,6.0,30,0.00,,,0.00,WeatherDisplay:10.37,2013-02-13 21:22:00,
2013-02-13 13:27:00,48.0,18.0,30.15,SSW,209,0.0,0.0,30,0.00,,,0.00,WeatherDisplay:10.37,2013-02-13 21:27:00,
2013-02-13 13:32:00,48.2,18.2,30.15,South,182,0.0,4.0,30,0.00,,,0.00,WeatherDisplay:10.37,2013-02-13 21:32:00,
2013-02-13 13:37:00,48.4,18.4,30.15,South,170,0.0,3.0,30,0.00,,,0.00,WeatherDisplay:10.37,2013-02-13 21:37:00,
2013-02-13 13:42:00,48.4,18.4,30.15,SE,143,0.0,3.0,30,0.00,,,0.00,WeatherDisplay:10.37,2013-02-13 21:42:00,
2013-02-13 13:47:00,48.6,17.7,30.15,ESE,110,0.0,3.0,29,0.00,,,0.00,WeatherDisplay:10.37,2013-02-13 21:47:00,
2013-02-13 13:52:00,48.7,18.6,30.15,SSE,166,0.0,2.0,30,0.00,,,0.00,WeatherDisplay:10.37,2013-02-13 21:52:00,
2013-02-13 13:57:00,48.7,18.6,30.15,SSE,161,0.0,3.0,30,0.00,,,0.00,WeatherDisplay:10.37,2013-02-13 21:57:00,
2013-02-13 14:02:00,48.7,18.6,30.15,ESE,122,0.0,3.0,30,0.00,,,0.00,WeatherDisplay:10.37,2013-02-13 22:02:00,
2013-02-13 14:07:00,48.7,18.6,30.15,SE,137,0.0,4.0,30,0.00,,,0.00,WeatherDisplay:10.37,2013-02-13 22:07:00,
2013-02-13 14:12:00,49.0,18.0,30.15,SSE,155,0.0,4.0,29,0.00,,,0.00,WeatherDisplay:10.37,2013-02-13 22:12:00,
2013-02-13 14:17:00,48.8,17.9,30.15,SSE,161,0.0,0.0,29,0.00,,,0.00,WeatherDisplay:10.37,2013-02-13 22:17:00,
2013-02-13 14:22:00,48.7,17.9,30.15,SSE,149,0.0,3.0,29,0.00,,,0.00,WeatherDisplay:10.37,2013-02-13 22:22:00,
2013-02-13 14:27:00,48.7,17.9,30.15,SSE,158,0.0,3.0,29,0.00,,,0.00,WeatherDisplay:10.37,2013-02-13 22:27:00,
2013-02-13 14:32:00,49.1,18.1,30.15,South,186,0.0,0.0,29,0.00,,,0.00,WeatherDisplay:10.37,2013-02-13 22:32:00,
2013-02-13 14:37:00,48.8,17.9,30.15,South,182,0.0,0.0,29,0.00,,,0.00,WeatherDisplay:10.37,2013-02-13 22:37:00,
2013-02-13 14:42:00,48.2,17.4,30.15,SE,133,0.0,0.0,29,0.00,,,0.00,WeatherDisplay:10.37,2013-02-13 22:42:00,
2013-02-13 14:47:00,47.8,17.9,30.15,ENE,62,0.0,3.0,30,0.00,,,0.00,WeatherDisplay:10.37,2013-02-13 22:47:00,
2013-02-13 14:52:00,48.1,18.1,30.15,NE,44,0.0,3.0,30,0.00,,,0.00,WeatherDisplay:10.37,2013-02-13 22:52:00,
2013-02-13 14:57:00,48.7,17.9,30.15,SE,130,0.0,0.0,29,0.00,,,0.00,WeatherDisplay:10.37,2013-02-13 22:57:00,
2013-02-13 15:07:00,48.7,17.9,30.15,SE,143,0.0,0.0,29,0.00,,,0.00,WeatherDisplay:10.37,2013-02-13 23:07:00,
2013-02-13 15:12:00,48.7,17.9,30.15,East,100,0.0,0.0,29,0.00,,,0.00,WeatherDisplay:10.37,2013-02-13 23:12:00,
2013-02-13 15:17:00,48.7,17.9,30.15,North,7,0.0,0.0,29,0.00,,,0.00,WeatherDisplay:10.37,2013-02-13 23:17:00,
2013-02-13 15:22:00,48.6,17.7,30.15,North,354,0.0,4.0,29,0.00,,,0.00,WeatherDisplay:10.37,2013-02-13 23:22:00,
2013-02-13 15:27:00,48.4,17.5,30.15,WNW,300,0.0,0.0,29,0.00,,,0.00,WeatherDisplay:10.37,2013-02-13 23:27:00,
2013-02-13 15:32:00,48.4,17.5,30.15,NW,318,0.0,0.0,29,0.00,,,0.00,WeatherDisplay:10.37,2013-02-13 23:32:00,
2013-02-13 15:37:00,48.0,18.0,30.15,NNE,13,0.0,4.0,30,0.00,,,0.00,WeatherDisplay:10.37,2013-02-13 23:37:00,
2013-02-13 15:42:00,48.0,18.0,30.15,NNW,331,2.0,6.0,30,0.00,,,0.00,WeatherDisplay:10.37,2013-02-13 23:42:00,
2013-02-13 15:52:00,48.2,18.2,30.15,WNW,298,2.0,6.0,30,0.00,,,0.00,WeatherDisplay:10.37,2013-02-13 23:52:00,
2013-02-13 15:57:00,47.9,17.9,30.15,WNW,287,2.0,6.0,30,0.00,,,0.00,WeatherDisplay:10.37,2013-02-13 23:57:00,
2013-02-13 16:02:00,47.3,17.4,30.15,WNW,296,2.0,6.0,30,0.00,,,0.00,WeatherDisplay:10.37,2013-02-14 00:02:00,
2013-02-13 16:07:00,46.9,17.0,30.15,NW,304,2.0,6.0,30,0.00,,,0.00,WeatherDisplay:10.37,2013-02-14 00:07:00,
2013-02-13 16:12:00,46.4,16.6,30.15,WNW,302,2.0,5.0,30,0.00,,,0.00,WeatherDisplay:10.37,2013-02-14 00:12:00,
2013-02-13 16:17:00,46.2,17.2,30.15,WNW,293,2.0,6.0,31,0.00,,,0.00,WeatherDisplay:10.37,2013-02-14 00:17:00,
2013-02-13 16:22:00,45.5,16.6,30.15,WNW,301,0.0,5.0,31,0.00,,,0.00,WeatherDisplay:10.37,2013-02-14 00:22:00,
2013-02-13 16:27:00,45.0,16.1,30.15,NW,319,2.0,5.0,31,0.00,,,0.00,WeatherDisplay:10.37,2013-02-14 00:27:00,
2013-02-13 16:32:00,44.6,15.8,30.15,NW,313,0.0,6.0,31,0.00,,,0.00,WeatherDisplay:10.37,2013-02-14 00:32:00,
2013-02-13 16:37:00,44.1,16.0,30.15,WNW,293,2.0,6.0,32,0.00,,,0.00,WeatherDisplay:10.37,2013-02-14 00:37:00,
2013-02-13 16:42:00,43.5,15.6,30.15,WNW,291,0.0,5.0,32,0.00,,,0.00,WeatherDisplay:10.37,2013-02-14 00:42:00,
2013-02-13 16:52:00,42.6,14.7,30.15,WNW,283,0.0,2.0,32,0.00,,,0.00,WeatherDisplay:10.37,2013-02-14 00:52:00,
2013-02-13 16:57:00,41.9,14.2,30.15,West,280,0.0,0.0,32,0.00,,,0.00,WeatherDisplay:10.37,2013-02-14 00:57:00,
2013-02-13 17:02:00,41.5,15.2,30.15,WNW,298,0.0,0.0,34,0.00,,,0.00,WeatherDisplay:10.37,2013-02-14 01:02:00,
2013-02-13 17:07:00,41.1,14.8,30.15,WNW,287,0.0,0.0,34,0.00,,,0.00,WeatherDisplay:10.37,2013-02-14 01:07:00,
2013-02-13 17:12:00,40.6,14.4,30.15,WNW,283,0.0,0.0,34,0.00,,,0.00,WeatherDisplay:10.37,2013-02-14 01:12:00,
2013-02-13 17:17:00,40.1,14.0,30.15,WNW,302,0.0,0.0,34,0.00,,,0.00,WeatherDisplay:10.37,2013-02-14 01:17:00,
2013-02-13 17:22:00,39.6,14.1,30.15,NW,324,0.0,0.0,35,0.00,,,0.00,WeatherDisplay:10.37,2013-02-14 01:22:00,
2013-02-13 17:27:00,39.2,13.8,30.15,NNW,338,0.0,0.0,35,0.00,,,0.00,WeatherDisplay:10.37,2013-02-14 01:27:00,
2013-02-13 17:32:00,38.8,14.1,30.15,NNW,343,0.0,0.0,36,0.00,,,0.00,WeatherDisplay:10.37,2013-02-14 01:32:00,
2013-02-13 17:37:00,38.4,14.4,30.15,NNW,344,0.0,0.0,37,0.00,,,0.00,WeatherDisplay:10.37,2013-02-14 01:37:00,
2013-02-13 17:42:00,37.9,14.6,30.15,North,352,0.0,0.0,38,0.00,,,0.00,WeatherDisplay:10.37,2013-02-14 01:42:00,
2013-02-13 17:47:00,37.5,14.7,30.15,North,360,0.0,0.0,39,0.00,,,0.00,WeatherDisplay:10.37,2013-02-14 01:47:00,
2013-02-13 17:52:00,37.0,14.3,30.15,North,0,0.0,0.0,39,0.00,,,0.00,WeatherDisplay:10.37,2013-02-14 01:52:00,
2013-02-13 17:57:00,36.7,14.0,30.15,North,0,0.0,0.0,39,0.00,,,0.00,WeatherDisplay:10.37,2013-02-14 01:57:00,
2013-02-13 18:02:00,36.3,13.7,30.15,North,0,0.0,0.0,39,0.00,,,0.00,WeatherDisplay:10.37,2013-02-14 02:02:00,
2013-02-13 18:17:00,35.6,14.2,30.15,North,353,0.0,0.0,41,0.00,,,0.00,WeatherDisplay:10.37,2013-02-14 02:17:00,
2013-02-13 18:22:00,35.4,14.0,30.15,North,353,0.0,0.0,41,0.00,,,0.00,WeatherDisplay:10.37,2013-02-14 02:22:00,
2013-02-13 18:27:00,35.4,14.0,30.15,North,353,0.0,0.0,41,0.00,,,0.00,WeatherDisplay:10.37,2013-02-14 02:27:00,
2013-02-13 18:32:00,35.4,14.0,30.15,North,352,0.0,0.0,41,0.00,,,0.00,WeatherDisplay:10.37,2013-02-14 02:32:00,
2013-02-13 18:37:00,35.4,14.6,30.15,North,350,0.0,0.0,42,0.00,,,0.00,WeatherDisplay:10.37,2013-02-14 02:37:00,
2013-02-13 18:42:00,35.3,14.5,30.15,North,350,0.0,0.0,42,0.00,,,0.00,WeatherDisplay:10.37,2013-02-14 02:42:00,
2013-02-13 18:47:00,34.9,14.1,30.15,North,350,0.0,0.0,42,0.00,,,0.00,WeatherDisplay:10.37,2013-02-14 02:47:00,
2013-02-13 18:52:00,34.5,14.8,30.15,North,350,0.0,0.0,44,0.00,,,0.00,WeatherDisplay:10.37,2013-02-14 02:52:00,
2013-02-13 18:57:00,34.4,15.2,30.15,North,350,0.0,0.0,45,0.00,,,0.00,WeatherDisplay:10.37,2013-02-14 02:57:00,
2013-02-13 19:02:00,34.7,15.5,30.15,North,350,0.0,0.0,45,0.00,,,0.00,WeatherDisplay:10.37,2013-02-14 03:02:00,
2013-02-13 19:07:00,35.1,15.4,30.15,North,350,0.0,0.0,44,0.00,,,0.00,WeatherDisplay:10.37,2013-02-14 03:07:00,
2013-02-13 19:12:00,35.1,15.3,30.15,North,350,0.0,0.0,44,0.00,,,0.00,WeatherDisplay:10.37,2013-02-14 03:12:00,
2013-02-13 19:17:00,34.9,15.1,30.15,North,350,0.0,0.0,44,0.00,,,0.00,WeatherDisplay:10.37,2013-02-14 03:17:00,
2013-02-13 19:22:00,34.9,15.1,30.15,North,353,0.0,0.0,44,0.00,,,0.00,WeatherDisplay:10.37,2013-02-14 03:22:00,
2013-02-13 19:27:00,35.4,15.6,30.15,North,3,0.0,0.0,44,0.00,,,0.00,WeatherDisplay:10.37,2013-02-14 03:27:00,
2013-02-13 19:32:00,35.1,15.3,30.15,NNE,12,0.0,0.0,44,0.00,,,0.00,WeatherDisplay:10.37,2013-02-14 03:32:00,
2013-02-13 19:37:00,34.5,15.3,30.15,NNE,12,0.0,0.0,45,0.00,,,0.00,WeatherDisplay:10.37,2013-02-14 03:37:00,
2013-02-13 19:42:00,34.2,15.0,30.15,NNE,12,0.0,0.0,45,0.00,,,0.00,WeatherDisplay:10.37,2013-02-14 03:42:00,
2013-02-13 19:47:00,33.8,15.2,30.15,NNE,12,0.0,0.0,46,0.00,,,0.00,WeatherDisplay:10.37,2013-02-14 03:47:00,
2013-02-13 19:52:00,33.6,15.0,30.15,NNE,12,0.0,0.0,46,0.00,,,0.00,WeatherDisplay:10.37,2013-02-14 03:52:00,
2013-02-13 20:02:00,33.3,15.2,30.15,NNE,12,0.0,0.0,47,0.00,,,0.00,WeatherDisplay:10.37,2013-02-14 04:02:00,
2013-02-13 20:07:00,33.1,15.5,30.15,NNE,12,0.0,0.0,48,0.00,,,0.00,WeatherDisplay:10.37,2013-02-14 04:07:00,
2013-02-13 20:12:00,32.4,15.8,30.15,NNE,12,0.0,0.0,50,0.00,,,0.00,WeatherDisplay:10.37,2013-02-14 04:12:00,
2013-02-13 20:17:00,31.9,16.7,30.15,NNE,12,0.0,0.0,53,0.00,,,0.00,WeatherDisplay:10.37,2013-02-14 04:17:00,
2013-02-13 20:22:00,31.5,16.7,30.15,NNE,12,0.0,0.0,54,0.00,,,0.00,WeatherDisplay:10.37,2013-02-14 04:22:00,
2013-02-13 20:27:00,31.3,16.5,30.15,NNE,12,0.0,0.0,54,0.00,,,0.00,WeatherDisplay:10.37,2013-02-14 04:27:00,
2013-02-13 20:32:00,31.1,16.8,30.15,NNE,12,0.0,0.0,55,0.00,,,0.00,WeatherDisplay:10.37,2013-02-14 04:32:00,
2013-02-13 20:37:00,31.1,17.2,30.15,NNE,12,0.0,0.0,56,0.00,,,0.00,WeatherDisplay:10.37,2013-02-14 04:37:00,
2013-02-13 20:42:00,31.1,17.2,30.15,NNE,12,0.0,0.0,56,0.00,,,0.00,WeatherDisplay:10.37,2013-02-14 04:42:00,
2013-02-13 20:47:00,31.1,17.2,30.15,NNE,12,0.0,0.0,56,0.00,,,0.00,WeatherDisplay:10.37,2013-02-14 04:47:00,
2013-02-13 20:52:00,31.4,17.1,30.15,NNE,12,0.0,0.0,55,0.00,,,0.00,WeatherDisplay:10.37,2013-02-14 04:52:00,
2013-02-13 20:57:00,31.6,16.8,30.15,NNE,12,0.0,0.0,54,0.00,,,0.00,WeatherDisplay:10.37,2013-02-14 04:57:00,
2013-02-13 21:02:00,31.6,16.4,30.15,NNE,12,0.0,0.0,53,0.00,,,0.00,WeatherDisplay:10.37,2013-02-14 05:02:00,
2013-02-13 21:07:00,31.6,16.4,30.15,NNE,12,0.0,0.0,53,0.00,,,0.00,WeatherDisplay:10.37,2013-02-14 05:07:00,
2013-02-13 21:12:00,31.1,16.0,30.18,NNE,12,0.0,0.0,53,0.00,,,0.00,WeatherDisplay:10.37,2013-02-14 05:12:00,
2013-02-13 21:17:00,30.5,16.7,30.18,NNE,12,0.0,0.0,56,0.00,,,0.00,WeatherDisplay:10.37,2013-02-14 05:17:00,
2013-02-13 21:22:00,29.8,16.8,30.18,NNE,12,0.0,0.0,58,0.00,,,0.00,WeatherDisplay:10.37,2013-02-14 05:22:00,
2013-02-13 21:27:00,29.5,16.9,30.18,NNE,12,0.0,0.0,59,0.00,,,0.00,WeatherDisplay:10.37,2013-02-14 05:27:00,
2013-02-13 21:32:00,29.4,17.6,30.18,NNE,12,0.0,0.0,61,0.00,,,0.00,WeatherDisplay:10.37,2013-02-14 05:32:00,
2013-02-13 21:42:00,29.5,16.9,30.18,NNE,12,0.0,0.0,59,0.00,,,0.00,WeatherDisplay:10.37,2013-02-14 05:42:00,
2013-02-13 21:47:00,29.5,16.9,30.18,NNE,12,0.0,0.0,59,0.00,,,0.00,WeatherDisplay:10.37,2013-02-14 05:47:00,
2013-02-13 21:52:00,29.5,16.9,30.18,NNE,12,0.0,0.0,59,0.00,,,0.00,WeatherDisplay:10.37,2013-02-14 05:52:00,
2013-02-13 22:02:00,29.5,16.5,30.18,NNE,12,0.0,0.0,58,0.00,,,0.00,WeatherDisplay:10.37,2013-02-14 06:02:00,
2013-02-13 22:07:00,29.7,16.7,30.18,NNE,12,0.0,0.0,58,0.00,,,0.00,WeatherDisplay:10.37,2013-02-14 06:07:00,
2013-02-13 22:12:00,30.1,16.7,30.18,NNE,12,0.0,0.0,57,0.00,,,0.00,WeatherDisplay:10.37,2013-02-14 06:12:00,
2013-02-13 22:17:00,30.4,16.1,30.18,NNE,12,0.0,0.0,55,0.00,,,0.00,WeatherDisplay:10.37,2013-02-14 06:17:00,
2013-02-13 22:22:00,30.2,16.0,30.18,NNE,12,0.0,0.0,55,0.00,,,0.00,WeatherDisplay:10.37,2013-02-14 06:22:00,
2013-02-13 22:27:00,30.0,15.8,30.18,NNE,12,0.0,0.0,55,0.00,,,0.00,WeatherDisplay:10.37,2013-02-14 06:27:00,
2013-02-13 22:32:00,29.5,15.7,30.18,NNE,12,0.0,0.0,56,0.00,,,0.00,WeatherDisplay:10.37,2013-02-14 06:32:00,
2013-02-13 22:37:00,29.1,15.8,30.18,NNE,12,0.0,0.0,57,0.00,,,0.00,WeatherDisplay:10.37,2013-02-14 06:37:00,
2013-02-13 22:42:00,28.6,15.7,30.18,NNE,12,0.0,0.0,58,0.00,,,0.00,WeatherDisplay:10.37,2013-02-14 06:42:00,
2013-02-13 22:47:00,28.0,15.9,30.18,NNE,12,0.0,0.0,60,0.00,,,0.00,WeatherDisplay:10.37,2013-02-14 06:47:00,
2013-02-13 22:52:00,27.9,16.1,30.18,NNE,12,0.0,0.0,61,0.00,,,0.00,WeatherDisplay:10.37,2013-02-14 06:52:00,
2013-02-13 22:57:00,27.7,16.3,30.18,NNE,12,0.0,0.0,62,0.00,,,0.00,WeatherDisplay:10.37,2013-02-14 06:57:00,
2013-02-13 23:02:00,27.5,16.5,30.18,NNE,12,0.0,0.0,63,0.00,,,0.00,WeatherDisplay:10.37,2013-02-14 07:02:00,
2013-02-13 23:07:00,27.3,16.7,30.18,NNE,12,0.0,0.0,64,0.00,,,0.00,WeatherDisplay:10.37,2013-02-14 07:07:00,
2013-02-13 23:12:00,27.6,17.4,30.18,NNE,12,0.0,0.0,65,0.00,,,0.00,WeatherDisplay:10.37,2013-02-14 07:12:00,
2013-02-13 23:17:00,27.9,17.3,30.18,NNE,12,0.0,0.0,64,0.00,,,0.00,WeatherDisplay:10.37,2013-02-14 07:17:00,
2013-02-13 23:22:00,28.0,17.1,30.18,NNE,12,0.0,0.0,63,0.00,,,0.00,WeatherDisplay:10.37,2013-02-14 07:22:00,
2013-02-13 23:27:00,28.0,17.1,30.18,NNE,12,0.0,0.0,63,0.00,,,0.00,WeatherDisplay:10.37,2013-02-14 07:27:00,
2013-02-13 23:32:00,27.9,16.9,30.18,NNE,12,0.0,0.0,63,0.00,,,0.00,WeatherDisplay:10.37,2013-02-14 07:32:00,
2013-02-13 23:42:00,27.9,17.3,30.18,NNE,12,0.0,0.0,64,0.00,,,0.00,WeatherDisplay:10.37,2013-02-14 07:42:00,
2013-02-13 23:47:00,27.9,17.3,30.18,NNE,12,0.0,0.0,64,0.00,,,0.00,WeatherDisplay:10.37,2013-02-14 07:47:00,
2013-02-13 23:52:00,27.9,16.9,30.18,NNE,12,0.0,0.0,63,0.00,,,0.00,WeatherDisplay:10.37,2013-02-14 07:52:00,
2013-02-13 23:57:00,27.9,17.0,30.18,NNE,12,0.0,0.0,63,0.00,,,0.00,WeatherDisplay:10.37,2013-02-14 07:57:00,